Lahore Weather



Lahore's Current Weather

Temprature 19o smoke

smoke

Rain: 0 %

Min Temprature16o
Max Temprature21o
Humidity60
Wind Speed2.6 m/h
Sun Rise05:41:02
Sun Set18:26:53
Current Time: 09-Apr-2020 02:42:41
Lat/Lon: 31.55, 74.34




Lahore's Geo Location



Lahore's Weather Forecast

Time Overall Temp Min Temp Max Temp Humidity Wind Speed Rain
09-Apr-2020 (Thu)
05:00:00 few clouds 17.340 17.340 17.730 44 0.91 m/h 0 %
08:00:00 clear sky 24.050 24.050 24.340 31 0.69 m/h 0 %
11:00:00 scattered clouds 31.810 31.810 32.010 19 0.91 m/h 0 %
14:00:00 overcast clouds 33.350 33.350 33.450 15 2.03 m/h 0 %
17:00:00 broken clouds 32.590 32.590 32.590 15 0.09 m/h 0 %
20:00:00 overcast clouds 25.170 25.170 25.170 26 3.04 m/h 0 %
23:00:00 overcast clouds 23.410 23.410 23.410 28 2.52 m/h 0 %
10-Apr-2020 (Fri)
02:00:00 light rain 21.730 21.730 21.730 33 0.68 m/h 17 %
05:00:00 light rain 20.480 20.480 20.480 42 1.9 m/h 58 %
08:00:00 light rain 25.530 25.530 25.530 34 1.88 m/h 38 %
11:00:00 few clouds 33.830 33.830 33.830 19 0.95 m/h 0 %
14:00:00 clear sky 35.370 35.370 35.370 16 2.65 m/h 0 %
17:00:00 clear sky 34.430 34.430 34.430 16 2.12 m/h 0 %
20:00:00 clear sky 26.850 26.850 26.850 31 3.88 m/h 0 %
23:00:00 clear sky 24.710 24.710 24.710 34 2.38 m/h 0 %
11-Apr-2020 (Sat)
02:00:00 clear sky 22.390 22.390 22.390 40 2.2 m/h 0 %
05:00:00 scattered clouds 21.520 21.520 21.520 43 2.34 m/h 0 %
08:00:00 few clouds 27.110 27.110 27.110 32 2.3 m/h 0 %
11:00:00 scattered clouds 34.360 34.360 34.360 19 3.86 m/h 0 %
14:00:00 scattered clouds 36.640 36.640 36.640 14 3.22 m/h 0 %
17:00:00 broken clouds 35.260 35.260 35.260 15 3.4 m/h 0 %
20:00:00 broken clouds 27.920 27.920 27.920 24 2.57 m/h 0 %
23:00:00 scattered clouds 25.860 25.860 25.860 28 2.38 m/h 0 %
12-Apr-2020 (Sun)
02:00:00 broken clouds 24.030 24.030 24.030 31 2.49 m/h 0 %
05:00:00 overcast clouds 23.070 23.070 23.070 33 2.04 m/h 0 %
08:00:00 broken clouds 28.320 28.320 28.320 24 1.99 m/h 0 %
11:00:00 broken clouds 35.840 35.840 35.840 13 4.25 m/h 0 %
14:00:00 scattered clouds 38.030 38.030 38.030 12 4.55 m/h 0 %
17:00:00 broken clouds 36.390 36.390 36.390 14 4.27 m/h 0 %
20:00:00 overcast clouds 29.100 29.100 29.100 23 1.96 m/h 0 %
23:00:00 broken clouds 26.640 26.640 26.640 27 1.97 m/h 0 %
13-Apr-2020 (Mon)
02:00:00 few clouds 24.700 24.700 24.700 29 1.9 m/h 0 %
05:00:00 few clouds 23.180 23.180 23.180 32 1.79 m/h 0 %
08:00:00 scattered clouds 28.840 28.840 28.840 24 1.33 m/h 0 %
11:00:00 broken clouds 36.210 36.210 36.210 15 2.53 m/h 0 %
14:00:00 broken clouds 39.240 39.240 39.240 11 3.46 m/h 0 %
17:00:00 scattered clouds 38.800 38.800 38.800 11 3.69 m/h 0 %
20:00:00 clear sky 30.380 30.380 30.380 19 2.44 m/h 0 %
23:00:00 clear sky 28.240 28.240 28.240 22 2.38 m/h 0 %
14-Apr-2020 (Tue)
02:00:00 clear sky 26.250 26.250 26.250 26 1.99 m/h 0 %


Lahore's Tourist Spots

Historical Places in Lahore

Famous Cities (61)